createdAt,value
2022-12-16T00:00:00.017Z,-7.47
2022-12-16T00:05:01.167Z,-7.48
2022-12-16T00:10:02.378Z,-7.56
2022-12-16T00:15:03.526Z,-7.70
2022-12-16T00:20:05.254Z,-7.71
2022-12-16T00:25:06.971Z,-7.73
2022-12-16T00:30:08.179Z,-7.66
2022-12-16T00:35:09.804Z,-7.65
2022-12-16T00:40:10.955Z,-7.69
2022-12-16T00:45:12.118Z,-7.68
2022-12-16T00:50:13.272Z,-7.67
2022-12-16T00:55:14.494Z,-7.77
2022-12-16T01:00:15.696Z,-7.76
2022-12-16T01:05:18.040Z,-7.77
2022-12-16T01:10:19.683Z,-7.82
2022-12-16T01:15:21.001Z,-7.87
2022-12-16T01:20:22.214Z,-7.83
2022-12-16T01:25:23.467Z,-7.86
2022-12-16T01:30:24.701Z,-7.91
2022-12-16T01:35:52.199Z,-7.94
2022-12-16T01:40:47.055Z,-7.91
2022-12-16T01:45:48.248Z,-7.90
2022-12-16T01:50:49.791Z,-7.97
2022-12-16T01:55:51.055Z,-8.01
2022-12-16T02:00:52.244Z,-8.09
2022-12-16T02:05:55.862Z,-8.14
2022-12-16T02:16:17.349Z,-8.22
2022-12-16T02:21:18.826Z,-8.39
2022-12-16T02:26:20.328Z,-8.39
2022-12-16T02:31:22.403Z,-8.39
2022-12-16T02:36:23.768Z,-8.42
2022-12-16T02:41:24.933Z,-8.45
2022-12-16T02:46:26.197Z,-8.47
2022-12-16T02:51:27.410Z,-8.47
2022-12-16T02:56:28.624Z,-8.45
2022-12-16T03:06:48.674Z,-8.57
2022-12-16T03:11:49.819Z,-8.68
2022-12-16T03:16:51.186Z,-8.62
2022-12-16T03:21:52.438Z,-8.56
2022-12-16T03:26:53.783Z,-8.59
2022-12-16T03:31:54.917Z,-8.61
2022-12-16T03:36:56.103Z,-8.68
2022-12-16T03:41:57.282Z,-8.70
2022-12-16T03:46:58.512Z,-8.72
2022-12-16T03:57:18.567Z,-8.73
2022-12-16T04:02:19.799Z,-8.75
2022-12-16T04:12:58.536Z,-8.79
2022-12-16T04:18:18.317Z,-8.80
2022-12-16T04:23:38.028Z,-8.77
2022-12-16T04:28:39.284Z,-8.77
2022-12-16T04:33:59.007Z,-8.80
2022-12-16T04:39:18.642Z,-8.81
2022-12-16T04:44:38.454Z,-8.80
2022-12-16T04:49:58.699Z,-8.83
2022-12-16T04:55:18.621Z,-8.79
2022-12-16T05:00:38.319Z,-8.79
2022-12-16T05:05:58.005Z,-8.81
2022-12-16T05:11:17.740Z,-8.85
2022-12-16T05:16:37.472Z,-8.81
2022-12-16T05:21:58.892Z,-8.75
2022-12-16T05:27:32.288Z,-8.78
2022-12-16T05:32:52.259Z,-8.85
2022-12-16T05:38:12.592Z,-8.84
2022-12-16T05:43:32.798Z,-8.84
2022-12-16T05:48:53.338Z,-8.85
2022-12-16T05:54:13.126Z,-8.84
2022-12-16T05:59:32.897Z,-8.82
2022-12-16T06:04:52.897Z,-8.85
2022-12-16T06:10:12.590Z,-8.86
2022-12-16T06:15:32.294Z,-8.88
2022-12-16T06:20:51.877Z,-8.90
2022-12-16T06:26:12.209Z,-8.91
2022-12-16T06:31:31.961Z,-8.94
2022-12-16T06:36:52.183Z,-8.91
2022-12-16T06:42:11.891Z,-8.92
2022-12-16T06:47:31.879Z,-8.97
2022-12-16T06:52:51.534Z,-9.01
2022-12-16T06:58:11.317Z,-9.03
2022-12-16T07:03:35.531Z,-9.02
2022-12-16T07:08:56.129Z,-9.01
2022-12-16T07:14:15.873Z,-9.02
2022-12-16T07:19:35.653Z,-9.08
2022-12-16T07:24:55.310Z,-9.18
2022-12-16T07:30:15.127Z,-9.16
2022-12-16T07:35:34.767Z,-9.13
2022-12-16T07:40:54.721Z,-9.12
2022-12-16T07:46:15.131Z,-9.06
2022-12-16T07:51:35.146Z,-9.02
2022-12-16T07:56:55.030Z,-8.98
2022-12-16T08:02:14.878Z,-8.94
2022-12-16T08:07:34.881Z,-8.88
2022-12-16T08:12:54.904Z,-8.77
2022-12-16T08:18:14.716Z,-8.72
2022-12-16T08:23:34.914Z,-8.62
2022-12-16T08:28:55.201Z,-8.51
2022-12-16T08:34:15.079Z,-8.43
2022-12-16T08:39:34.963Z,-8.32
2022-12-16T08:44:54.721Z,-8.15
2022-12-16T08:50:14.409Z,-7.95
2022-12-16T08:55:34.337Z,-7.76
2022-12-16T09:00:54.055Z,-7.56
2022-12-16T09:06:14.458Z,-7.34
2022-12-16T09:11:34.222Z,-7.09
2022-12-16T09:16:53.959Z,-6.86
2022-12-16T09:22:14.767Z,-6.79
2022-12-16T09:27:34.401Z,-6.62
2022-12-16T09:32:54.262Z,-6.41
2022-12-16T09:38:14.488Z,-6.19
2022-12-16T09:43:34.839Z,-5.94
2022-12-16T09:48:54.933Z,-5.93
2022-12-16T09:54:15.907Z,-5.84
2022-12-16T09:59:35.617Z,-5.68
2022-12-16T10:04:55.560Z,-5.44
2022-12-16T10:10:15.821Z,-5.09
2022-12-16T10:15:35.700Z,-4.67
2022-12-16T10:20:55.806Z,-4.18
2022-12-16T10:26:15.546Z,-3.52
2022-12-16T10:31:35.221Z,-2.93
2022-12-16T10:36:55.526Z,-2.71
2022-12-16T10:42:15.393Z,-2.69
2022-12-16T10:47:42.853Z,-2.72
2022-12-16T10:53:02.774Z,-2.72
2022-12-16T10:58:22.850Z,-2.59
2022-12-16T11:03:42.772Z,-2.49
2022-12-16T11:09:02.822Z,-2.29
2022-12-16T11:14:22.484Z,-2.19
2022-12-16T11:19:42.193Z,-1.98
2022-12-16T11:25:01.918Z,-1.92
2022-12-16T11:30:21.605Z,-2.02
2022-12-16T11:35:41.374Z,-2.17
2022-12-16T11:41:01.182Z,-2.25
2022-12-16T11:46:20.952Z,-2.20
2022-12-16T11:51:40.881Z,-2.24
2022-12-16T11:57:00.658Z,-2.29
2022-12-16T12:02:20.669Z,-2.35
2022-12-16T12:07:44.936Z,-2.36
2022-12-16T12:13:05.401Z,-2.27
2022-12-16T12:18:25.173Z,-2.38
2022-12-16T12:23:44.898Z,-2.08
2022-12-16T12:29:04.725Z,-1.91
2022-12-16T12:34:24.476Z,-1.72
2022-12-16T12:39:44.160Z,-1.60
2022-12-16T12:45:04.035Z,-1.56
2022-12-16T12:50:23.911Z,-1.42
2022-12-16T12:55:43.738Z,-1.23
2022-12-16T13:01:03.479Z,-1.18
2022-12-16T13:06:23.521Z,-0.94
2022-12-16T13:11:43.787Z,-0.98
2022-12-16T13:17:03.664Z,-0.73
2022-12-16T13:22:23.450Z,-0.63
2022-12-16T13:27:43.341Z,-0.70
2022-12-16T13:33:03.185Z,-1.02
2022-12-16T13:38:23.038Z,-0.86
2022-12-16T13:43:42.971Z,-0.93
2022-12-16T13:49:02.827Z,-1.05
2022-12-16T13:54:22.696Z,-0.99
2022-12-16T13:59:42.536Z,-0.89
2022-12-16T14:05:02.653Z,-1.13
2022-12-16T14:10:22.413Z,-1.24
2022-12-16T14:15:52.802Z,-1.28
2022-12-16T14:21:12.613Z,-1.33
2022-12-16T14:26:32.363Z,-1.34
2022-12-16T14:31:53.284Z,-1.49
2022-12-16T14:37:13.246Z,-1.58
2022-12-16T14:42:33.001Z,-1.69
2022-12-16T14:47:52.858Z,-1.89
2022-12-16T14:53:12.606Z,-2.15
2022-12-16T14:58:32.583Z,-2.20
2022-12-16T15:03:52.525Z,-2.28
2022-12-16T15:09:13.389Z,-2.36
2022-12-16T15:14:33.598Z,-2.41
2022-12-16T15:19:53.260Z,-2.51
2022-12-16T15:25:13.088Z,-2.64
2022-12-16T15:30:40.616Z,-2.77
2022-12-16T15:36:00.384Z,-3.01
2022-12-16T15:41:20.210Z,-3.08
2022-12-16T15:46:39.937Z,-3.09
2022-12-16T15:52:00.097Z,-3.21
2022-12-16T15:57:20.050Z,-3.28
2022-12-16T16:02:40.019Z,-3.31
2022-12-16T16:08:03.685Z,-3.28
2022-12-16T16:13:24.551Z,-3.39
2022-12-16T16:18:44.348Z,-3.39
2022-12-16T16:24:04.267Z,-3.36
2022-12-16T16:29:24.131Z,-3.20
2022-12-16T16:34:43.960Z,-3.02
2022-12-16T16:40:03.754Z,-2.93
2022-12-16T16:45:23.613Z,-2.96
2022-12-16T16:50:43.465Z,-3.07
2022-12-16T16:56:03.369Z,-3.04
2022-12-16T17:01:23.338Z,-3.06
2022-12-16T17:06:43.547Z,-2.99
2022-12-16T17:12:03.316Z,-2.99
2022-12-16T17:17:23.083Z,-3.15
2022-12-16T17:22:42.958Z,-3.14
2022-12-16T17:28:02.687Z,-3.02
2022-12-16T17:33:22.605Z,-2.96
2022-12-16T17:38:42.612Z,-2.91
2022-12-16T17:44:02.287Z,-2.91
2022-12-16T17:49:22.021Z,-3.05
2022-12-16T17:54:41.803Z,-3.29
2022-12-16T18:00:01.511Z,-3.37
2022-12-16T18:05:21.324Z,-3.38
2022-12-16T18:10:41.029Z,-3.38
2022-12-16T18:16:00.725Z,-3.36
2022-12-16T18:21:20.588Z,-3.37
2022-12-16T18:26:40.434Z,-3.45
2022-12-16T18:32:00.324Z,-3.54
2022-12-16T18:37:20.551Z,-3.57
2022-12-16T18:42:40.386Z,-3.49
2022-12-16T18:47:59.982Z,-3.41
2022-12-16T18:53:19.921Z,-3.33
2022-12-16T18:58:51.347Z,-3.39
2022-12-16T19:04:11.584Z,-3.45
2022-12-16T19:09:31.294Z,-3.51
2022-12-16T19:14:51.297Z,-3.67
2022-12-16T19:20:10.896Z,-3.80
2022-12-16T19:25:30.835Z,-3.80
2022-12-16T19:30:50.599Z,-3.64
2022-12-16T19:36:10.275Z,-3.59
2022-12-16T19:41:30.130Z,-3.64
2022-12-16T19:46:49.823Z,-3.78
2022-12-16T19:52:09.586Z,-4.04
2022-12-16T19:57:29.403Z,-4.11
2022-12-16T20:02:49.482Z,-4.00
2022-12-16T20:08:09.484Z,-3.85
2022-12-16T20:13:33.779Z,-3.78
2022-12-16T20:18:54.903Z,-3.73
2022-12-16T20:24:15.895Z,-3.79
2022-12-16T20:29:35.827Z,-3.75
2022-12-16T20:34:55.496Z,-3.70
2022-12-16T20:40:16.416Z,-3.65
2022-12-16T20:45:36.129Z,-3.66
2022-12-16T20:50:56.132Z,-3.65
2022-12-16T20:56:16.120Z,-3.70
2022-12-16T21:01:36.085Z,-3.60
2022-12-16T21:06:56.200Z,-3.56
2022-12-16T21:12:27.122Z,-3.43
2022-12-16T21:17:47.007Z,-3.40
2022-12-16T21:23:06.791Z,-3.46
2022-12-16T21:28:26.599Z,-3.25
2022-12-16T21:33:46.940Z,-3.07
2022-12-16T21:39:24.297Z,-3.00
2022-12-16T21:44:44.071Z,-2.93
2022-12-16T21:50:03.835Z,-2.82
2022-12-16T21:55:23.636Z,-2.80
2022-12-16T22:00:43.595Z,-2.80
2022-12-16T22:06:03.360Z,-2.76
2022-12-16T22:11:23.521Z,-2.79
2022-12-16T22:16:43.319Z,-2.74
2022-12-16T22:22:03.172Z,-2.74
2022-12-16T22:27:23.071Z,-2.67
2022-12-16T22:32:42.817Z,-2.65
2022-12-16T22:38:02.699Z,-2.72
2022-12-16T22:43:22.462Z,-2.74
2022-12-16T22:48:42.288Z,-2.80
2022-12-16T22:54:02.089Z,-2.93
2022-12-16T22:59:21.851Z,-2.85
2022-12-16T23:04:41.577Z,-2.88
2022-12-16T23:10:01.895Z,-2.78
2022-12-16T23:15:21.595Z,-2.73
2022-12-16T23:20:41.537Z,-2.80
2022-12-16T23:26:01.247Z,-2.93
2022-12-16T23:31:21.041Z,-2.75
2022-12-16T23:36:40.809Z,-2.75
2022-12-16T23:42:00.721Z,-2.76
2022-12-16T23:47:20.557Z,-2.62
2022-12-16T23:52:40.408Z,-2.58
2022-12-16T23:58:00.292Z,-2.65
